createdAt,value
2018-12-16T00:01:08.198Z,11.20
2018-12-16T00:03:38.990Z,11.23
2018-12-16T00:06:09.717Z,10.17
2018-12-16T00:08:38.814Z,8.83
2018-12-16T00:11:07.991Z,10.40
2018-12-16T00:13:36.816Z,9.90
2018-12-16T00:16:05.666Z,8.90
2018-12-16T00:18:34.565Z,10.05
2018-12-16T00:21:03.702Z,10.67
2018-12-16T00:23:32.467Z,10.03
2018-12-16T00:26:02.026Z,12.30
2018-12-16T00:31:10.610Z,8.67
2018-12-16T00:33:40.404Z,11.13
2018-12-16T00:36:09.190Z,10.40
2018-12-16T00:38:37.911Z,7.40
2018-12-16T00:41:06.627Z,9.08
2018-12-16T00:43:35.377Z,10.70
2018-12-16T00:46:04.309Z,7.92
2018-12-16T00:48:33.144Z,10.70
2018-12-16T00:51:03.014Z,8.50
2018-12-16T00:53:31.695Z,10.10
2018-12-16T00:56:00.483Z,13.10
2018-12-16T00:58:29.890Z,12.60
2018-12-16T01:00:58.791Z,11.07
2018-12-16T01:03:27.629Z,9.20
2018-12-16T01:05:56.466Z,10.13
2018-12-16T01:08:25.290Z,10.97
2018-12-16T01:10:54.323Z,12.70
2018-12-16T01:13:23.107Z,10.43
2018-12-16T01:15:51.927Z,9.47
2018-12-16T01:18:20.705Z,9.87
2018-12-16T01:20:49.441Z,9.77
2018-12-16T01:23:18.266Z,8.47
2018-12-16T01:25:46.951Z,9.50
2018-12-16T01:28:15.674Z,7.90
2018-12-16T01:30:44.793Z,7.00
2018-12-16T01:33:14.529Z,10.67
2018-12-16T01:35:43.322Z,11.83
2018-12-16T01:38:12.055Z,10.97
2018-12-16T01:40:40.998Z,8.50
2018-12-16T01:43:09.794Z,12.45
2018-12-16T01:48:18.385Z,11.10
2018-12-16T01:50:47.530Z,8.03
2018-12-16T01:53:16.325Z,11.22
2018-12-16T01:55:45.175Z,9.73
2018-12-16T01:58:14.049Z,10.32
2018-12-16T02:00:42.848Z,9.27
2018-12-16T02:05:51.772Z,11.97
2018-12-16T02:08:20.530Z,9.10
2018-12-16T02:10:49.311Z,11.50
2018-12-16T02:13:18.152Z,10.50
2018-12-16T02:15:47.045Z,10.10
2018-12-16T02:18:15.813Z,9.53
2018-12-16T02:20:44.510Z,11.40
2018-12-16T02:23:13.330Z,8.37
2018-12-16T02:25:42.174Z,5.40
2018-12-16T02:28:11.138Z,9.43
2018-12-16T02:30:40.029Z,11.00
2018-12-16T02:33:08.815Z,9.77
2018-12-16T02:35:37.575Z,10.83
2018-12-16T02:38:06.328Z,8.50
2018-12-16T02:40:35.229Z,9.25
2018-12-16T02:43:04.109Z,11.33
2018-12-16T02:45:32.868Z,10.07
2018-12-16T02:48:02.047Z,11.65
2018-12-16T02:50:30.794Z,10.53
2018-12-16T02:53:04.525Z,11.48
2018-12-16T02:55:30.569Z,10.40
2018-12-16T02:57:59.323Z,9.30
2018-12-16T03:00:28.274Z,10.63
2018-12-16T03:02:56.980Z,13.83
2018-12-16T03:05:26.737Z,9.30
2018-12-16T03:07:55.491Z,10.55
2018-12-16T03:10:24.256Z,11.45
2018-12-16T03:12:53.161Z,10.72
2018-12-16T03:15:22.018Z,12.47
2018-12-16T03:17:50.968Z,13.32
2018-12-16T03:20:19.782Z,10.70
2018-12-16T03:22:48.525Z,13.10
2018-12-16T03:25:17.275Z,11.37
2018-12-16T03:27:46.020Z,12.93
2018-12-16T03:32:54.748Z,11.80
2018-12-16T03:35:23.533Z,11.57
2018-12-16T03:37:52.326Z,12.10
2018-12-16T03:40:21.105Z,9.48
2018-12-16T03:42:49.944Z,11.10
2018-12-16T03:45:18.786Z,13.10
2018-12-16T03:47:47.474Z,13.00
2018-12-16T03:50:16.219Z,12.90
2018-12-16T03:52:45.146Z,11.63
2018-12-16T03:55:14.231Z,14.03
2018-12-16T04:00:22.033Z,11.93
2018-12-16T04:02:50.777Z,12.10
2018-12-16T04:05:19.690Z,11.43
2018-12-16T04:07:48.471Z,12.78
2018-12-16T04:10:17.170Z,13.17
2018-12-16T04:12:46.118Z,10.03
2018-12-16T04:15:15.001Z,13.50
2018-12-16T04:17:43.777Z,12.93
2018-12-16T04:20:12.533Z,10.67
2018-12-16T04:22:41.329Z,13.83
2018-12-16T04:25:10.046Z,13.50
2018-12-16T04:27:39.276Z,12.27
2018-12-16T04:30:08.151Z,11.53
2018-12-16T04:32:37.032Z,11.70
2018-12-16T04:35:06.155Z,14.35
2018-12-16T04:37:35.149Z,11.57
2018-12-16T04:40:04.887Z,13.32
2018-12-16T04:42:33.630Z,12.07
2018-12-16T04:45:03.539Z,11.85
2018-12-16T04:47:32.353Z,13.03
2018-12-16T04:50:02.082Z,14.53
2018-12-16T04:52:30.991Z,12.57
2018-12-16T04:54:59.715Z,14.35
2018-12-16T04:57:28.458Z,10.40
2018-12-16T04:59:57.266Z,11.33
2018-12-16T05:02:26.069Z,11.67
2018-12-16T05:04:54.802Z,11.80
2018-12-16T05:07:23.665Z,12.10
2018-12-16T05:09:52.568Z,13.03
2018-12-16T05:12:21.458Z,13.17
2018-12-16T05:14:50.195Z,11.78
2018-12-16T05:17:18.880Z,11.73
2018-12-16T05:19:47.766Z,12.37
2018-12-16T05:22:17.571Z,12.63
2018-12-16T05:24:46.308Z,15.20
2018-12-16T05:27:15.021Z,11.68
2018-12-16T05:29:43.853Z,11.20
2018-12-16T05:32:12.606Z,13.47
2018-12-16T05:34:41.525Z,12.03
2018-12-16T05:37:10.298Z,13.58
2018-12-16T05:39:39.166Z,12.80
2018-12-16T05:42:07.943Z,12.13
2018-12-16T05:44:36.746Z,12.53
2018-12-16T05:47:05.530Z,14.30
2018-12-16T05:49:34.296Z,14.03
2018-12-16T05:54:44.007Z,11.80
2018-12-16T05:57:12.741Z,14.25
2018-12-16T05:59:41.517Z,8.43
2018-12-16T06:02:10.315Z,12.67
2018-12-16T06:04:39.037Z,10.77
2018-12-16T06:07:07.954Z,12.27
2018-12-16T06:09:37.068Z,11.55
2018-12-16T06:12:05.891Z,12.60
2018-12-16T06:14:34.718Z,11.65
2018-12-16T06:17:03.521Z,13.17
2018-12-16T06:19:32.504Z,11.90
2018-12-16T06:22:01.646Z,10.98
2018-12-16T06:24:30.752Z,11.08
2018-12-16T06:26:59.612Z,11.40
2018-12-16T06:29:28.481Z,12.00
2018-12-16T06:31:57.338Z,10.30
2018-12-16T06:34:26.282Z,10.93
2018-12-16T06:36:54.999Z,11.50
2018-12-16T06:39:23.746Z,9.47
2018-12-16T06:41:52.516Z,13.00
2018-12-16T06:44:21.290Z,11.23
2018-12-16T06:46:50.166Z,9.43
2018-12-16T06:49:18.886Z,9.67
2018-12-16T06:51:47.642Z,12.20
2018-12-16T06:54:16.390Z,11.70
2018-12-16T06:59:27.255Z,9.43
2018-12-16T07:01:56.006Z,13.03
2018-12-16T07:04:24.793Z,11.37
2018-12-16T07:06:53.490Z,11.53
2018-12-16T07:09:22.489Z,11.27
2018-12-16T07:11:51.223Z,11.73
2018-12-16T07:14:19.955Z,11.93
2018-12-16T07:16:48.692Z,11.60
2018-12-16T07:19:17.458Z,10.63
2018-12-16T07:21:46.194Z,10.07
2018-12-16T07:24:15.121Z,11.15
2018-12-16T07:26:43.860Z,9.23
2018-12-16T07:29:12.634Z,11.60
2018-12-16T07:31:41.337Z,10.97
2018-12-16T07:34:10.106Z,10.60
2018-12-16T07:36:38.813Z,12.93
2018-12-16T07:39:07.879Z,11.03
2018-12-16T07:41:37.844Z,10.45
2018-12-16T07:44:06.667Z,13.20
2018-12-16T07:46:35.515Z,12.15
2018-12-16T07:49:04.286Z,10.63
2018-12-16T07:51:33.154Z,9.20
2018-12-16T07:54:02.648Z,12.40
2018-12-16T07:56:32.497Z,10.18
2018-12-16T07:59:01.981Z,10.88
2018-12-16T08:01:31.833Z,14.67
2018-12-16T08:04:00.570Z,11.33
2018-12-16T08:06:29.319Z,12.53
2018-12-16T08:08:58.093Z,13.30
2018-12-16T08:11:26.818Z,10.60
2018-12-16T08:13:55.563Z,12.37
2018-12-16T08:16:24.339Z,11.00
2018-12-16T08:18:53.286Z,11.20
2018-12-16T08:21:22.002Z,13.30
2018-12-16T08:23:50.773Z,9.58
2018-12-16T08:26:19.621Z,13.17
2018-12-16T08:28:48.370Z,12.17
2018-12-16T08:31:17.146Z,11.95
2018-12-16T08:33:47.865Z,11.53
2018-12-16T08:36:16.661Z,10.77
2018-12-16T08:38:45.430Z,13.13
2018-12-16T08:41:14.178Z,11.43
2018-12-16T08:43:43.023Z,10.82
2018-12-16T08:48:51.674Z,13.20
2018-12-16T08:51:20.449Z,8.93
2018-12-16T08:53:49.213Z,13.53
2018-12-16T08:56:18.001Z,12.23
2018-12-16T08:58:46.750Z,10.57
2018-12-16T09:01:15.570Z,10.50
2018-12-16T09:03:44.643Z,13.27
2018-12-16T09:06:13.569Z,12.00
2018-12-16T09:08:42.412Z,11.30
2018-12-16T09:11:11.144Z,10.30
2018-12-16T09:13:40.141Z,12.10
2018-12-16T09:16:08.923Z,10.45
2018-12-16T09:18:37.707Z,12.37
2018-12-16T09:21:06.464Z,12.70
2018-12-16T09:23:36.246Z,12.30
2018-12-16T09:26:04.997Z,10.20
2018-12-16T09:28:33.780Z,12.83
2018-12-16T09:31:03.890Z,11.55
2018-12-16T09:33:32.858Z,10.50
2018-12-16T09:36:01.691Z,13.30
2018-12-16T09:38:30.494Z,9.50
2018-12-16T09:40:59.323Z,11.00
2018-12-16T09:43:28.030Z,11.00
2018-12-16T09:45:56.834Z,11.13
2018-12-16T09:48:25.591Z,12.53
2018-12-16T09:50:54.358Z,10.27
2018-12-16T09:53:23.102Z,10.32
2018-12-16T09:55:51.833Z,11.90
2018-12-16T09:58:20.868Z,11.20
2018-12-16T10:00:49.662Z,9.77
2018-12-16T10:03:18.336Z,10.82
2018-12-16T10:05:47.145Z,12.83
2018-12-16T10:08:15.846Z,11.83
2018-12-16T10:10:44.638Z,11.97
2018-12-16T10:13:13.304Z,10.27
2018-12-16T10:15:42.053Z,11.45
2018-12-16T10:18:10.829Z,8.33
2018-12-16T10:20:39.578Z,9.33
2018-12-16T10:23:08.253Z,10.00
2018-12-16T10:25:36.975Z,9.60
2018-12-16T10:28:12.266Z,13.07
2018-12-16T10:30:40.982Z,9.00
2018-12-16T10:33:09.750Z,9.93
2018-12-16T10:38:19.578Z,9.70
2018-12-16T10:40:48.432Z,9.50
2018-12-16T10:43:17.114Z,8.35
2018-12-16T10:45:46.074Z,10.03
2018-12-16T10:48:14.988Z,11.03
2018-12-16T10:50:43.881Z,8.93
2018-12-16T10:53:13.434Z,10.03
2018-12-16T10:55:42.216Z,9.80
2018-12-16T10:58:10.928Z,9.63
2018-12-16T11:00:45.098Z,8.28
2018-12-16T11:03:13.944Z,9.68
2018-12-16T11:05:42.935Z,6.87
2018-12-16T11:08:11.801Z,10.20
2018-12-16T11:10:40.994Z,6.97
2018-12-16T11:13:10.837Z,9.43
2018-12-16T11:15:39.598Z,8.47
2018-12-16T11:18:08.490Z,9.00
2018-12-16T11:20:37.355Z,7.62
2018-12-16T11:25:50.123Z,9.23
2018-12-16T11:28:18.875Z,8.47
2018-12-16T11:30:47.718Z,7.75
2018-12-16T11:33:16.530Z,9.20
2018-12-16T11:35:45.294Z,8.50
2018-12-16T11:38:20.493Z,8.53
2018-12-16T11:40:49.387Z,8.60
2018-12-16T11:43:18.165Z,8.03
2018-12-16T11:45:46.956Z,8.33
2018-12-16T11:48:15.909Z,9.35
2018-12-16T11:50:44.754Z,9.50
2018-12-16T11:53:13.693Z,8.50
2018-12-16T11:55:42.729Z,7.62
2018-12-16T11:58:11.657Z,8.20
2018-12-16T12:00:40.490Z,8.50
2018-12-16T12:03:09.314Z,9.13
2018-12-16T12:05:40.073Z,9.13
2018-12-16T12:08:09.481Z,10.03
2018-12-16T12:10:38.514Z,10.27
2018-12-16T12:13:07.318Z,9.60
2018-12-16T12:15:36.126Z,9.48
2018-12-16T12:18:04.938Z,10.40
2018-12-16T12:20:33.686Z,8.93
2018-12-16T12:23:03.537Z,7.77
2018-12-16T12:25:33.298Z,9.55
2018-12-16T12:28:02.962Z,9.30
2018-12-16T12:30:31.789Z,8.37
2018-12-16T12:33:00.555Z,8.47
2018-12-16T12:35:29.901Z,9.57
2018-12-16T12:37:58.824Z,7.55
2018-12-16T12:40:27.530Z,10.30
2018-12-16T12:42:56.269Z,9.00
2018-12-16T12:45:25.306Z,7.80
2018-12-16T12:47:54.002Z,9.03
2018-12-16T12:50:22.823Z,8.70
2018-12-16T12:52:51.630Z,8.27
2018-12-16T12:55:26.647Z,8.10
2018-12-16T12:57:51.405Z,8.67
2018-12-16T13:00:20.252Z,9.90
2018-12-16T13:02:49.037Z,8.85
2018-12-16T13:05:17.834Z,7.27
2018-12-16T13:07:46.618Z,6.80
2018-12-16T13:10:15.435Z,6.80
2018-12-16T13:12:44.325Z,10.32
2018-12-16T13:15:13.151Z,7.83
2018-12-16T13:17:42.387Z,8.30
2018-12-16T13:20:11.217Z,10.63
2018-12-16T13:22:40.398Z,9.10
2018-12-16T13:25:21.002Z,9.50
2018-12-16T13:27:51.613Z,9.03
2018-12-16T13:30:21.843Z,7.60
2018-12-16T13:32:51.726Z,8.20
2018-12-16T13:35:20.660Z,8.67
2018-12-16T13:37:49.392Z,8.20
2018-12-16T13:40:20.006Z,8.57
2018-12-16T13:42:48.984Z,9.17
2018-12-16T13:45:18.230Z,7.70
2018-12-16T13:47:47.045Z,8.00
2018-12-16T13:50:15.800Z,8.65
2018-12-16T13:52:45.170Z,9.60
2018-12-16T13:55:14.139Z,8.50
2018-12-16T13:57:44.478Z,10.63
2018-12-16T14:00:13.740Z,8.37
2018-12-16T14:02:43.374Z,7.37
2018-12-16T14:05:12.246Z,9.00
2018-12-16T14:07:41.169Z,8.35
2018-12-16T14:10:12.759Z,8.20
2018-12-16T14:12:41.664Z,8.80
2018-12-16T14:15:10.451Z,8.80
2018-12-16T14:17:39.414Z,8.40
2018-12-16T14:20:09.764Z,9.47
2018-12-16T14:22:38.925Z,9.57
2018-12-16T14:25:07.965Z,8.20
2018-12-16T14:30:17.466Z,9.47
2018-12-16T14:32:47.295Z,8.53
2018-12-16T14:35:16.722Z,9.10
2018-12-16T14:37:45.727Z,9.30
2018-12-16T14:40:14.729Z,10.47
2018-12-16T14:42:45.986Z,10.27
2018-12-16T14:45:16.034Z,10.30
2018-12-16T14:47:44.873Z,10.23
2018-12-16T14:50:13.805Z,9.90
2018-12-16T14:52:42.527Z,9.10
2018-12-16T14:55:11.810Z,9.13
2018-12-16T14:57:41.713Z,9.53
2018-12-16T15:00:14.503Z,7.90
2018-12-16T15:02:43.391Z,8.40
2018-12-16T15:05:14.194Z,10.67
2018-12-16T15:07:46.689Z,9.38
2018-12-16T15:10:15.498Z,9.37
2018-12-16T15:12:44.342Z,7.93
2018-12-16T15:15:13.410Z,8.78
2018-12-16T15:20:25.947Z,9.23
2018-12-16T15:22:54.733Z,9.40
2018-12-16T15:25:23.450Z,9.17
2018-12-16T15:27:52.204Z,9.45
2018-12-16T15:30:20.934Z,8.73
2018-12-16T15:32:50.128Z,10.40
2018-12-16T15:35:18.897Z,9.80
2018-12-16T15:37:47.779Z,8.63
2018-12-16T15:40:16.580Z,10.48
2018-12-16T15:45:25.106Z,8.20
2018-12-16T15:47:53.881Z,8.97
2018-12-16T15:50:22.661Z,8.90
2018-12-16T15:52:51.528Z,9.83
2018-12-16T15:55:21.809Z,8.07
2018-12-16T15:57:50.550Z,10.43
2018-12-16T16:00:21.407Z,10.03
2018-12-16T16:02:50.230Z,7.90
2018-12-16T16:05:19.004Z,10.20
2018-12-16T16:07:47.978Z,10.60
2018-12-16T16:10:16.731Z,9.17
2018-12-16T16:12:45.445Z,8.00
2018-12-16T16:15:14.202Z,8.80
2018-12-16T16:17:43.018Z,9.53
2018-12-16T16:20:11.778Z,9.10
2018-12-16T16:22:40.695Z,8.43
2018-12-16T16:25:09.575Z,9.77
2018-12-16T16:27:38.307Z,8.67
2018-12-16T16:30:07.697Z,9.77
2018-12-16T16:32:36.531Z,8.80
2018-12-16T16:35:05.853Z,7.35
2018-12-16T16:37:34.725Z,8.33
2018-12-16T16:40:04.435Z,10.00
2018-12-16T16:42:33.590Z,8.87
2018-12-16T16:45:04.361Z,9.20
2018-12-16T16:47:35.214Z,9.27
2018-12-16T16:50:04.623Z,10.40
2018-12-16T16:52:34.413Z,10.03
2018-12-16T16:55:04.979Z,10.17
2018-12-16T16:57:33.752Z,8.20
2018-12-16T17:00:05.318Z,10.53
2018-12-16T17:02:34.061Z,10.23
2018-12-16T17:05:04.181Z,9.40
2018-12-16T17:07:33.087Z,8.27
2018-12-16T17:10:02.272Z,10.00
2018-12-16T17:12:31.302Z,10.78
2018-12-16T17:15:00.019Z,8.80
2018-12-16T17:17:29.987Z,9.37
2018-12-16T17:19:58.794Z,8.87
2018-12-16T17:22:27.914Z,10.23
2018-12-16T17:24:56.730Z,10.40
2018-12-16T17:27:25.875Z,8.80
2018-12-16T17:29:55.073Z,12.10
2018-12-16T17:32:23.977Z,8.33
2018-12-16T17:34:53.117Z,9.13
2018-12-16T17:37:21.913Z,9.90
2018-12-16T17:39:50.645Z,10.82
2018-12-16T17:42:19.482Z,10.60
2018-12-16T17:44:48.319Z,10.30
2018-12-16T17:47:17.266Z,11.20
2018-12-16T17:49:46.007Z,9.63
2018-12-16T17:52:15.825Z,12.63
2018-12-16T17:54:44.798Z,11.93
2018-12-16T17:57:13.866Z,11.27
2018-12-16T17:59:43.013Z,9.33
2018-12-16T18:02:11.725Z,9.90
2018-12-16T18:04:40.478Z,11.40
2018-12-16T18:07:11.905Z,11.22
2018-12-16T18:09:40.731Z,10.63
2018-12-16T18:12:10.034Z,11.73
2018-12-16T18:14:39.078Z,12.20
2018-12-16T18:17:08.626Z,10.03
2018-12-16T18:19:37.483Z,12.60
2018-12-16T18:22:06.242Z,11.73
2018-12-16T18:24:35.021Z,11.53
2018-12-16T18:27:04.114Z,9.40
2018-12-16T18:29:33.166Z,10.30
2018-12-16T18:32:03.242Z,9.87
2018-12-16T18:34:32.413Z,11.10
2018-12-16T18:37:02.494Z,12.75
2018-12-16T18:39:31.389Z,11.50
2018-12-16T18:42:00.233Z,10.70
2018-12-16T18:44:29.878Z,13.83
2018-12-16T18:46:59.063Z,13.17
2018-12-16T18:49:27.801Z,11.20
2018-12-16T18:51:56.553Z,11.50
2018-12-16T18:54:25.479Z,11.10
2018-12-16T18:56:54.252Z,10.98
2018-12-16T18:59:23.017Z,11.67
2018-12-16T19:01:51.802Z,12.07
2018-12-16T19:04:21.831Z,12.17
2018-12-16T19:06:50.607Z,10.53
2018-12-16T19:09:19.382Z,9.37
2018-12-16T19:11:48.261Z,11.18
2018-12-16T19:14:17.085Z,11.37
2018-12-16T19:16:45.896Z,11.10
2018-12-16T19:19:14.783Z,10.32
2018-12-16T19:21:43.601Z,10.50
2018-12-16T19:24:12.594Z,10.73
2018-12-16T19:26:41.387Z,10.10
2018-12-16T19:29:10.684Z,10.47
2018-12-16T19:31:39.576Z,10.60
2018-12-16T19:34:08.973Z,12.23
2018-12-16T19:36:38.201Z,9.95
2018-12-16T19:39:07.350Z,12.40
2018-12-16T19:41:38.066Z,11.97
2018-12-16T19:44:09.706Z,12.43
2018-12-16T19:46:39.814Z,11.90
2018-12-16T19:49:08.567Z,11.97
2018-12-16T19:51:37.530Z,13.20
2018-12-16T19:54:06.619Z,11.50
2018-12-16T19:56:36.022Z,12.30
2018-12-16T19:59:05.234Z,12.40
2018-12-16T20:01:34.210Z,12.37
2018-12-16T20:04:10.082Z,11.75
2018-12-16T20:06:44.795Z,13.33
2018-12-16T20:09:14.450Z,12.83
2018-12-16T20:11:43.586Z,11.50
2018-12-16T20:14:16.467Z,12.90
2018-12-16T20:16:48.971Z,11.23
2018-12-16T20:19:17.689Z,13.53
2018-12-16T20:21:47.644Z,13.37
2018-12-16T20:24:17.457Z,11.93
2018-12-16T20:26:46.452Z,12.60
2018-12-16T20:29:18.322Z,12.13
2018-12-16T20:31:46.994Z,12.80
2018-12-16T20:34:17.428Z,12.57
2018-12-16T20:36:46.327Z,13.47
2018-12-16T20:39:16.958Z,14.20
2018-12-16T20:41:46.074Z,12.20
2018-12-16T20:44:16.405Z,12.45
2018-12-16T20:46:46.611Z,12.00
2018-12-16T20:49:15.414Z,12.65
2018-12-16T20:51:44.319Z,13.35
2018-12-16T20:54:14.747Z,11.65
2018-12-16T20:56:43.472Z,14.30
2018-12-16T20:59:12.197Z,16.50
2018-12-16T21:01:42.692Z,12.27
2018-12-16T21:04:12.368Z,11.53
2018-12-16T21:06:41.137Z,13.50
2018-12-16T21:09:09.874Z,13.98
2018-12-16T21:11:46.035Z,10.70
2018-12-16T21:14:20.772Z,13.28
2018-12-16T21:17:56.713Z,13.20
2018-12-16T21:20:25.713Z,14.90
2018-12-16T21:22:54.960Z,13.53
2018-12-16T21:25:24.124Z,14.03
2018-12-16T21:27:53.106Z,15.87
2018-12-16T21:30:23.154Z,13.32
2018-12-16T21:32:54.019Z,13.17
2018-12-16T21:35:24.590Z,11.97
2018-12-16T21:37:53.823Z,12.90
2018-12-16T21:40:22.615Z,12.47
2018-12-16T21:42:51.769Z,11.47
2018-12-16T21:45:21.007Z,12.70
2018-12-16T21:47:49.951Z,13.20
2018-12-16T21:50:18.942Z,14.90
2018-12-16T21:52:48.157Z,11.97
2018-12-16T21:55:16.985Z,14.70
2018-12-16T21:57:47.022Z,13.70
2018-12-16T22:00:15.842Z,12.47
2018-12-16T22:02:45.082Z,14.33
2018-12-16T22:05:15.360Z,13.50
2018-12-16T22:07:45.379Z,12.37
2018-12-16T22:10:14.502Z,13.03
2018-12-16T22:12:43.340Z,12.80
2018-12-16T22:15:12.716Z,13.23
2018-12-16T22:17:42.944Z,12.87
2018-12-16T22:20:12.107Z,13.53
2018-12-16T22:22:40.986Z,12.53
2018-12-16T22:25:10.102Z,13.83
2018-12-16T22:27:40.337Z,12.03
2018-12-16T22:30:09.739Z,14.37
2018-12-16T22:32:38.514Z,13.37
2018-12-16T22:35:07.476Z,13.23
2018-12-16T22:37:36.169Z,13.13
2018-12-16T22:40:06.022Z,13.15
2018-12-16T22:42:34.907Z,14.53
2018-12-16T22:45:04.337Z,12.30
2018-12-16T22:47:34.239Z,12.57
2018-12-16T22:50:04.582Z,12.85
2018-12-16T22:52:33.665Z,13.87
2018-12-16T22:55:03.663Z,11.97
2018-12-16T22:57:32.480Z,13.93
2018-12-16T23:00:01.880Z,14.17
2018-12-16T23:02:33.051Z,12.93
2018-12-16T23:05:02.893Z,11.30
2018-12-16T23:07:39.898Z,12.33
2018-12-16T23:10:08.749Z,13.63
2018-12-16T23:12:37.594Z,12.17
2018-12-16T23:15:07.358Z,15.90
2018-12-16T23:17:37.557Z,13.87
2018-12-16T23:22:48.702Z,13.40
2018-12-16T23:28:00.787Z,12.73
2018-12-16T23:30:30.532Z,12.63
2018-12-16T23:32:59.256Z,12.80
2018-12-16T23:35:28.021Z,14.43
2018-12-16T23:37:56.810Z,12.03
2018-12-16T23:40:25.533Z,11.63
2018-12-16T23:42:54.786Z,13.72
2018-12-16T23:45:23.481Z,12.67
2018-12-16T23:47:52.258Z,13.00
2018-12-16T23:53:00.111Z,11.97
2018-12-16T23:55:30.474Z,15.23
2018-12-16T23:58:01.223Z,17.40
